Terminal Aerodrome Forecast
Issued by NWS

Home | Current Version | Previous Version | Text Only | Print | Product List | Glossary Off
Versions: 1 2 3 4 5 6 7 8 9 10 11 12 13 14 15 16 17 18

000
FTUS43 KGRB 230500
TAFAUW
TAF
KAUW 230525Z 2306/2406 35006KT P6SM SKC
     FM231400 34008KT P6SM SCT035
      TEMPO 2317/2321 BKN035
     FM232300 36005KT P6SM SCT040=

USA.gov is the U.S. government's official web portal to all federal, state and local government web resources and services.